createdAt,value
2023-02-26T00:01:02.340Z,99.90
2023-02-26T00:03:30.502Z,99.90
2023-02-26T00:06:02.421Z,99.90
2023-02-26T00:08:31.323Z,99.90
2023-02-26T00:11:01.871Z,99.90
2023-02-26T00:13:30.944Z,99.90
2023-02-26T00:16:01.804Z,99.90
2023-02-26T00:18:30.434Z,99.90
2023-02-26T00:21:00.305Z,99.90
2023-02-26T00:23:29.962Z,99.90
2023-02-26T00:26:01.750Z,99.90
2023-02-26T00:28:30.176Z,99.90
2023-02-26T00:30:59.073Z,99.90
2023-02-26T00:33:27.973Z,99.90
2023-02-26T00:36:01.705Z,99.90
2023-02-26T00:38:35.077Z,99.90
2023-02-26T00:41:03.531Z,99.90
2023-02-26T00:43:31.930Z,99.90
2023-02-26T00:46:16.543Z,99.90
2023-02-26T00:48:53.874Z,99.90
2023-02-26T00:51:29.703Z,99.90
2023-02-26T00:54:06.683Z,99.90
2023-02-26T00:56:34.493Z,99.90
2023-02-26T00:59:02.414Z,99.90
2023-02-26T01:01:30.373Z,99.90
2023-02-26T01:03:58.983Z,99.90
2023-02-26T01:06:29.718Z,99.90
2023-02-26T01:09:05.284Z,99.90
2023-02-26T01:11:34.578Z,99.90
2023-02-26T01:14:03.304Z,99.90
2023-02-26T01:16:37.808Z,99.90
2023-02-26T01:19:15.255Z,99.90
2023-02-26T01:21:53.675Z,99.90
2023-02-26T01:24:25.722Z,99.90
2023-02-26T01:26:54.485Z,99.90
2023-02-26T01:29:22.884Z,99.90
2023-02-26T01:31:55.637Z,99.90
2023-02-26T01:34:30.845Z,99.90
2023-02-26T01:37:05.754Z,99.90
2023-02-26T01:39:41.487Z,99.90
2023-02-26T01:42:18.816Z,99.90
2023-02-26T01:44:56.748Z,99.90
2023-02-26T01:47:31.400Z,99.90
2023-02-26T01:50:07.170Z,99.90
2023-02-26T01:53:04.767Z,99.90
2023-02-26T01:55:34.156Z,99.90
2023-02-26T01:58:03.999Z,99.90
2023-02-26T02:00:32.837Z,99.90
2023-02-26T02:03:00.957Z,99.90
2023-02-26T02:05:34.322Z,99.90
2023-02-26T02:08:02.486Z,99.90
2023-02-26T02:10:30.839Z,99.90
2023-02-26T02:13:11.248Z,99.90
2023-02-26T02:15:48.899Z,99.90
2023-02-26T02:18:22.364Z,99.90
2023-02-26T02:21:20.656Z,99.90
2023-02-26T02:23:54.364Z,99.90
2023-02-26T02:26:56.969Z,99.90
2023-02-26T02:29:49.323Z,99.90
2023-02-26T02:32:23.478Z,99.90
2023-02-26T02:34:57.149Z,99.90
2023-02-26T02:37:30.439Z,99.90
2023-02-26T02:40:03.417Z,99.90
2023-02-26T02:42:35.558Z,99.90
2023-02-26T02:45:10.857Z,99.90
2023-02-26T02:47:43.898Z,99.90
2023-02-26T02:50:18.831Z,99.90
2023-02-26T02:52:53.590Z,99.90
2023-02-26T02:55:25.456Z,99.90
2023-02-26T02:57:59.449Z,99.90
2023-02-26T03:00:29.231Z,99.90
2023-02-26T03:03:03.973Z,99.90
2023-02-26T03:05:31.911Z,99.90
2023-02-26T03:08:04.063Z,99.90
2023-02-26T03:10:33.217Z,99.90
2023-02-26T03:13:01.093Z,99.90
2023-02-26T03:15:38.526Z,99.90
2023-02-26T03:18:19.317Z,99.90
2023-02-26T03:21:10.949Z,99.90
2023-02-26T03:23:48.684Z,99.90
2023-02-26T03:26:25.425Z,99.90
2023-02-26T03:28:58.386Z,99.90
2023-02-26T03:31:31.031Z,99.90
2023-02-26T03:34:06.946Z,99.90
2023-02-26T03:36:39.407Z,99.90
2023-02-26T03:39:12.482Z,99.90
2023-02-26T03:41:45.166Z,99.90
2023-02-26T03:44:17.089Z,99.90
2023-02-26T03:46:49.049Z,99.90
2023-02-26T03:49:22.962Z,99.90
2023-02-26T03:51:52.025Z,99.90
2023-02-26T03:54:25.051Z,99.90
2023-02-26T03:56:53.926Z,99.90
2023-02-26T03:59:22.000Z,99.90
2023-02-26T04:01:55.935Z,99.90
2023-02-26T04:04:29.088Z,99.90
2023-02-26T04:06:57.712Z,99.90
2023-02-26T04:09:25.966Z,99.90
2023-02-26T04:11:55.829Z,99.90
2023-02-26T04:14:23.629Z,99.90
2023-02-26T04:16:51.654Z,99.90
2023-02-26T04:19:19.566Z,99.90
2023-02-26T04:21:49.011Z,99.90
2023-02-26T04:24:17.255Z,99.90
2023-02-26T04:26:45.515Z,99.90
2023-02-26T04:29:13.417Z,99.90
2023-02-26T04:31:42.577Z,99.90
2023-02-26T04:34:10.828Z,99.90
2023-02-26T04:36:38.767Z,99.90
2023-02-26T04:39:10.686Z,99.90
2023-02-26T04:41:38.981Z,99.90
2023-02-26T04:44:07.447Z,99.90
2023-02-26T04:46:35.430Z,99.90
2023-02-26T04:49:03.246Z,99.90
2023-02-26T04:51:31.094Z,99.90
2023-02-26T04:53:58.961Z,99.90
2023-02-26T04:56:28.572Z,99.90
2023-02-26T04:58:56.492Z,99.90
2023-02-26T05:01:24.393Z,99.90
2023-02-26T05:03:52.329Z,99.90
2023-02-26T05:06:20.265Z,99.90
2023-02-26T05:08:48.322Z,99.90
2023-02-26T05:11:16.253Z,99.90
2023-02-26T05:13:45.543Z,99.90
2023-02-26T05:16:13.639Z,99.90
2023-02-26T05:18:41.552Z,99.90
2023-02-26T05:21:09.463Z,99.90
2023-02-26T05:23:37.343Z,99.90
2023-02-26T05:26:05.315Z,99.90
2023-02-26T05:28:36.425Z,99.90
2023-02-26T05:31:06.625Z,99.90
2023-02-26T05:33:34.662Z,99.90
2023-02-26T05:36:04.852Z,99.90
2023-02-26T05:38:32.778Z,99.90
2023-02-26T05:41:01.181Z,99.90
2023-02-26T05:43:29.671Z,99.90
2023-02-26T05:45:57.820Z,99.90
2023-02-26T05:48:27.086Z,99.90
2023-02-26T05:50:55.014Z,99.90
2023-02-26T05:53:22.930Z,99.90
2023-02-26T05:55:51.407Z,99.90
2023-02-26T05:58:19.476Z,99.90
2023-02-26T06:00:47.324Z,99.90
2023-02-26T06:03:15.368Z,99.90
2023-02-26T06:05:44.602Z,99.90
2023-02-26T06:08:15.542Z,99.90
2023-02-26T06:10:43.707Z,99.90
2023-02-26T06:13:11.862Z,99.90
2023-02-26T06:15:39.712Z,99.90
2023-02-26T06:18:08.548Z,99.90
2023-02-26T06:20:36.404Z,99.90
2023-02-26T06:23:05.652Z,99.90
2023-02-26T06:25:33.516Z,99.90
2023-02-26T06:28:01.358Z,99.90
2023-02-26T06:30:29.248Z,99.90
2023-02-26T06:32:57.127Z,99.90
2023-02-26T06:35:26.212Z,99.90
2023-02-26T06:37:54.249Z,99.90
2023-02-26T06:40:23.536Z,99.90
2023-02-26T06:42:51.403Z,99.90
2023-02-26T06:45:19.461Z,99.90
2023-02-26T06:47:47.429Z,99.90
2023-02-26T06:50:15.404Z,99.90
2023-02-26T06:52:43.277Z,99.90
2023-02-26T06:55:12.368Z,99.90
2023-02-26T06:57:41.611Z,99.90
2023-02-26T07:00:10.723Z,99.90
2023-02-26T07:02:38.753Z,99.90
2023-02-26T07:05:07.562Z,99.90
2023-02-26T07:07:35.382Z,99.90
2023-02-26T07:10:03.268Z,99.90
2023-02-26T07:12:31.116Z,99.90
2023-02-26T07:15:00.386Z,99.90
2023-02-26T07:17:28.336Z,99.90
2023-02-26T07:19:56.494Z,99.90
2023-02-26T07:22:24.377Z,99.90
2023-02-26T07:24:52.241Z,99.90
2023-02-26T07:27:20.148Z,99.90
2023-02-26T07:29:47.977Z,99.90
2023-02-26T07:32:17.195Z,99.90
2023-02-26T07:34:45.173Z,99.90
2023-02-26T07:37:13.133Z,99.90
2023-02-26T07:39:41.225Z,99.90
2023-02-26T07:42:09.306Z,99.90
2023-02-26T07:44:37.283Z,99.90
2023-02-26T07:47:05.521Z,99.90
2023-02-26T07:49:34.996Z,99.90
2023-02-26T07:52:03.311Z,99.90
2023-02-26T07:54:31.294Z,99.90
2023-02-26T07:56:59.309Z,99.90
2023-02-26T07:59:27.304Z,99.90
2023-02-26T08:01:55.807Z,99.90
2023-02-26T08:04:24.174Z,99.90
2023-02-26T08:06:54.597Z,99.90
2023-02-26T08:09:22.637Z,99.90
2023-02-26T08:11:50.893Z,99.90
2023-02-26T08:14:20.819Z,99.90
2023-02-26T08:16:48.720Z,99.90
2023-02-26T08:19:16.565Z,99.90
2023-02-26T08:21:44.468Z,99.90
2023-02-26T08:24:13.974Z,99.90
2023-02-26T08:26:41.840Z,99.90
2023-02-26T08:29:09.816Z,99.90
2023-02-26T08:31:37.689Z,99.90
2023-02-26T08:34:06.052Z,99.90
2023-02-26T08:36:34.034Z,99.90
2023-02-26T08:39:02.496Z,99.90
2023-02-26T08:41:32.614Z,99.90
2023-02-26T08:44:01.308Z,99.90
2023-02-26T08:46:29.960Z,99.90
2023-02-26T08:48:58.165Z,99.90
2023-02-26T08:51:27.102Z,99.90
2023-02-26T08:53:55.176Z,99.90
2023-02-26T08:56:23.207Z,99.90
2023-02-26T08:58:53.339Z,99.90
2023-02-26T09:01:21.266Z,99.90
2023-02-26T09:03:49.080Z,99.90
2023-02-26T09:06:17.033Z,99.90
2023-02-26T09:08:44.895Z,99.90
2023-02-26T09:11:12.819Z,99.90
2023-02-26T09:13:40.739Z,99.90
2023-02-26T09:16:10.195Z,99.90
2023-02-26T09:18:38.302Z,99.90
2023-02-26T09:21:06.891Z,99.90
2023-02-26T09:23:35.029Z,99.90
2023-02-26T09:26:03.025Z,99.90
2023-02-26T09:28:31.259Z,99.90
2023-02-26T09:30:59.361Z,99.90
2023-02-26T09:33:28.678Z,99.90
2023-02-26T09:35:56.706Z,99.90
2023-02-26T09:38:24.578Z,99.90
2023-02-26T09:40:55.860Z,99.90
2023-02-26T09:43:47.019Z,99.90
2023-02-26T09:46:26.143Z,99.00
2023-02-26T09:49:04.703Z,97.00
2023-02-26T09:51:35.176Z,92.30
2023-02-26T09:54:13.746Z,83.30
2023-02-26T09:56:42.176Z,75.70
2023-02-26T09:59:11.377Z,63.00
2023-02-26T10:01:44.214Z,57.00
2023-02-26T10:04:22.893Z,50.60
2023-02-26T10:07:04.391Z,48.00
2023-02-26T10:09:45.545Z,45.00
2023-02-26T10:12:17.002Z,42.10
2023-02-26T10:14:51.938Z,39.60
2023-02-26T10:17:24.387Z,36.70
2023-02-26T10:19:58.854Z,34.70
2023-02-26T10:22:32.058Z,32.40
2023-02-26T10:25:06.225Z,31.30
2023-02-26T10:27:49.156Z,30.60
2023-02-26T10:30:29.351Z,30.10
2023-02-26T10:33:05.257Z,28.60
2023-02-26T10:35:48.741Z,27.60
2023-02-26T10:38:20.805Z,27.50
2023-02-26T10:40:52.052Z,27.80
2023-02-26T10:43:23.727Z,28.00
2023-02-26T10:46:05.773Z,29.00
2023-02-26T10:48:47.362Z,28.80
2023-02-26T10:51:19.660Z,28.90
2023-02-26T10:53:51.332Z,28.80
2023-02-26T10:56:23.892Z,28.40
2023-02-26T10:58:54.747Z,27.10
2023-02-26T11:01:25.639Z,26.20
2023-02-26T11:03:58.989Z,25.70
2023-02-26T11:06:33.279Z,25.40
2023-02-26T11:09:02.692Z,24.80
2023-02-26T11:11:40.678Z,25.40
2023-02-26T11:14:09.487Z,25.80
2023-02-26T11:16:42.399Z,26.90
2023-02-26T11:19:10.440Z,27.80
2023-02-26T11:21:42.623Z,29.20
2023-02-26T11:24:14.548Z,30.10
2023-02-26T11:26:47.557Z,31.00
2023-02-26T11:29:18.488Z,32.20
2023-02-26T11:31:49.554Z,33.20
2023-02-26T11:34:17.527Z,34.20
2023-02-26T11:36:46.807Z,34.80
2023-02-26T11:39:20.562Z,35.20
2023-02-26T11:41:51.671Z,35.90
2023-02-26T11:44:23.106Z,36.80
2023-02-26T11:46:54.332Z,37.60
2023-02-26T11:49:25.423Z,38.40
2023-02-26T11:52:16.044Z,38.60
2023-02-26T11:54:46.734Z,39.30
2023-02-26T11:57:19.708Z,40.30
2023-02-26T11:59:50.921Z,39.80
2023-02-26T12:02:22.878Z,39.70
2023-02-26T12:04:53.748Z,38.90
2023-02-26T12:07:23.441Z,37.90
2023-02-26T12:09:51.369Z,36.90
2023-02-26T12:12:36.251Z,36.40
2023-02-26T12:15:19.113Z,36.70
2023-02-26T12:18:09.409Z,35.60
2023-02-26T12:20:48.549Z,36.20
2023-02-26T12:23:38.096Z,36.50
2023-02-26T12:26:28.314Z,37.10
2023-02-26T12:29:15.126Z,37.00
2023-02-26T12:32:13.987Z,36.90
2023-02-26T12:35:07.148Z,37.50
2023-02-26T12:37:50.170Z,38.10
2023-02-26T12:40:37.997Z,38.20
2023-02-26T12:43:11.514Z,38.20
2023-02-26T12:45:48.561Z,38.70
2023-02-26T12:49:04.320Z,38.60
2023-02-26T12:51:49.157Z,38.80
2023-02-26T12:54:42.267Z,39.40
2023-02-26T12:57:41.225Z,39.50
2023-02-26T13:00:38.491Z,40.00
2023-02-26T13:03:32.329Z,40.10
2023-02-26T13:06:29.813Z,40.20
2023-02-26T13:09:06.360Z,40.60
2023-02-26T13:11:48.366Z,40.50
2023-02-26T13:14:45.506Z,40.60
2023-02-26T13:17:25.377Z,40.30
2023-02-26T13:19:57.111Z,40.20
2023-02-26T13:22:40.722Z,40.20
2023-02-26T13:25:21.310Z,40.50
2023-02-26T13:27:51.642Z,41.00
2023-02-26T13:30:29.339Z,41.30
2023-02-26T13:32:59.865Z,41.50
2023-02-26T13:35:32.181Z,41.90
2023-02-26T13:38:02.858Z,42.10
2023-02-26T13:40:48.536Z,41.90
2023-02-26T13:43:48.042Z,41.80
2023-02-26T13:46:34.206Z,41.60
2023-02-26T13:49:11.591Z,41.10
2023-02-26T13:51:42.706Z,40.60
2023-02-26T13:54:33.808Z,40.60
2023-02-26T13:57:10.924Z,40.40
2023-02-26T13:59:48.208Z,40.40
2023-02-26T14:02:51.678Z,40.10
2023-02-26T14:05:54.180Z,39.70
2023-02-26T14:08:48.392Z,39.90
2023-02-26T14:11:48.673Z,40.10
2023-02-26T14:14:26.214Z,40.10
2023-02-26T14:17:31.830Z,40.30
2023-02-26T14:20:22.291Z,40.40
2023-02-26T14:23:12.866Z,40.40
2023-02-26T14:25:43.021Z,40.10
2023-02-26T14:28:45.606Z,40.00
2023-02-26T14:31:22.274Z,40.10
2023-02-26T14:34:04.668Z,40.20
2023-02-26T14:36:37.778Z,40.20
2023-02-26T14:39:09.273Z,41.40
2023-02-26T14:41:41.872Z,40.30
2023-02-26T14:44:16.976Z,40.20
2023-02-26T14:46:46.280Z,40.20
2023-02-26T14:49:20.066Z,40.20
2023-02-26T14:52:03.787Z,40.00
2023-02-26T14:54:51.194Z,40.10
2023-02-26T14:57:26.975Z,40.20
2023-02-26T15:00:12.763Z,40.10
2023-02-26T15:03:03.775Z,40.40
2023-02-26T15:05:43.085Z,40.40
2023-02-26T15:08:26.307Z,40.50
2023-02-26T15:11:21.432Z,40.40
2023-02-26T15:14:06.354Z,40.60
2023-02-26T15:16:46.206Z,41.00
2023-02-26T15:19:32.786Z,41.30
2023-02-26T15:22:18.015Z,41.50
2023-02-26T15:24:48.195Z,41.00
2023-02-26T15:27:19.481Z,41.10
2023-02-26T15:29:50.393Z,41.00
2023-02-26T15:32:24.905Z,41.10
2023-02-26T15:34:59.844Z,41.00
2023-02-26T15:37:33.522Z,41.20
2023-02-26T15:40:05.869Z,41.50
2023-02-26T15:42:38.486Z,41.80
2023-02-26T15:45:11.821Z,41.90
2023-02-26T15:47:40.197Z,42.20
2023-02-26T15:50:09.066Z,42.50
2023-02-26T15:52:39.278Z,42.70
2023-02-26T15:55:15.520Z,42.80
2023-02-26T15:57:43.608Z,42.80
2023-02-26T16:00:17.273Z,42.70
2023-02-26T16:02:45.808Z,42.50
2023-02-26T16:05:15.282Z,42.80
2023-02-26T16:07:43.226Z,42.80
2023-02-26T16:10:28.094Z,43.00
2023-02-26T16:12:56.959Z,42.80
2023-02-26T16:15:31.022Z,42.80
2023-02-26T16:18:00.538Z,42.90
2023-02-26T16:20:35.704Z,43.00
2023-02-26T16:23:08.047Z,43.30
2023-02-26T16:25:40.145Z,43.80
2023-02-26T16:28:15.912Z,44.10
2023-02-26T16:30:45.745Z,44.10
2023-02-26T16:33:17.160Z,44.40
2023-02-26T16:35:48.304Z,44.70
2023-02-26T16:38:21.622Z,45.00
2023-02-26T16:41:00.389Z,45.20
2023-02-26T16:43:36.510Z,45.30
2023-02-26T16:46:05.992Z,45.60
2023-02-26T16:48:47.790Z,45.50
2023-02-26T16:51:20.281Z,45.50
2023-02-26T16:53:50.952Z,45.50
2023-02-26T16:56:31.863Z,45.60
2023-02-26T16:59:05.970Z,45.80
2023-02-26T17:01:38.772Z,46.10
2023-02-26T17:04:08.445Z,46.30
2023-02-26T17:06:41.994Z,46.50
2023-02-26T17:09:28.560Z,46.60
2023-02-26T17:12:16.866Z,46.70
2023-02-26T17:14:47.977Z,47.10
2023-02-26T17:17:15.944Z,47.40
2023-02-26T17:19:43.915Z,47.60
2023-02-26T17:22:15.683Z,47.90
2023-02-26T17:24:47.332Z,48.10
2023-02-26T17:27:23.025Z,48.40
2023-02-26T17:29:52.389Z,48.60
2023-02-26T17:32:22.760Z,49.00
2023-02-26T17:34:51.640Z,49.20
2023-02-26T17:37:20.587Z,49.40
2023-02-26T17:39:49.194Z,49.70
2023-02-26T17:42:21.326Z,49.90
2023-02-26T17:44:49.685Z,50.70
2023-02-26T17:47:19.886Z,50.20
2023-02-26T17:49:47.953Z,50.50
2023-02-26T17:52:16.143Z,50.60
2023-02-26T17:54:44.171Z,50.90
2023-02-26T17:57:19.142Z,51.20
2023-02-26T17:59:47.280Z,51.40
2023-02-26T18:02:18.268Z,51.70
2023-02-26T18:04:46.204Z,51.90
2023-02-26T18:07:17.090Z,52.10
2023-02-26T18:09:45.228Z,52.30
2023-02-26T18:12:15.628Z,52.60
2023-02-26T18:14:44.973Z,52.90
2023-02-26T18:17:15.517Z,53.10
2023-02-26T18:19:43.624Z,53.30
2023-02-26T18:22:14.527Z,53.60
2023-02-26T18:24:42.620Z,54.40
2023-02-26T18:27:14.727Z,54.10
2023-02-26T18:29:44.971Z,54.30
2023-02-26T18:32:14.930Z,54.60
2023-02-26T18:34:43.406Z,55.50
2023-02-26T18:37:14.533Z,55.10
2023-02-26T18:39:42.955Z,55.40
2023-02-26T18:42:20.714Z,55.80
2023-02-26T18:44:50.897Z,56.10
2023-02-26T18:47:19.764Z,56.40
2023-02-26T18:49:48.612Z,56.70
2023-02-26T18:52:16.579Z,57.00
2023-02-26T18:54:45.104Z,57.30
2023-02-26T18:57:12.969Z,57.70
2023-02-26T18:59:40.901Z,58.00
2023-02-26T19:02:13.796Z,58.40
2023-02-26T19:04:42.591Z,58.90
2023-02-26T19:07:11.011Z,59.30
2023-02-26T19:09:39.095Z,59.60
2023-02-26T19:12:08.341Z,60.00
2023-02-26T19:14:37.648Z,60.40
2023-02-26T19:17:07.653Z,60.90
2023-02-26T19:19:40.442Z,61.40
2023-02-26T19:22:08.359Z,61.90
2023-02-26T19:24:36.477Z,62.50
2023-02-26T19:27:04.751Z,62.90
2023-02-26T19:29:33.762Z,63.50
2023-02-26T19:32:02.041Z,63.90
2023-02-26T19:34:30.255Z,64.40
2023-02-26T19:36:59.436Z,64.90
2023-02-26T19:39:28.277Z,65.70
2023-02-26T19:41:56.564Z,66.00
2023-02-26T19:44:27.428Z,66.50
2023-02-26T19:46:56.690Z,67.10
2023-02-26T19:49:25.254Z,67.60
2023-02-26T19:51:53.615Z,68.20
2023-02-26T19:54:23.090Z,68.80
2023-02-26T19:56:51.522Z,69.40
2023-02-26T19:59:22.377Z,70.00
2023-02-26T20:01:50.541Z,70.50
2023-02-26T20:04:18.956Z,71.70
2023-02-26T20:06:47.780Z,71.50
2023-02-26T20:09:17.278Z,72.10
2023-02-26T20:11:46.761Z,72.70
2023-02-26T20:14:14.864Z,73.30
2023-02-26T20:16:43.163Z,73.80
2023-02-26T20:19:13.576Z,74.40
2023-02-26T20:21:41.973Z,75.10
2023-02-26T20:24:10.700Z,75.60
2023-02-26T20:26:39.316Z,76.20
2023-02-26T20:29:08.993Z,76.80
2023-02-26T20:31:37.018Z,77.50
2023-02-26T20:34:05.114Z,78.10
2023-02-26T20:36:32.979Z,78.90
2023-02-26T20:39:02.480Z,79.40
2023-02-26T20:41:30.352Z,79.90
2023-02-26T20:43:58.860Z,80.20
2023-02-26T20:46:29.005Z,80.40
2023-02-26T20:48:57.144Z,80.80
2023-02-26T20:51:25.610Z,81.10
2023-02-26T20:53:54.404Z,81.40
2023-02-26T20:56:22.456Z,81.80
2023-02-26T20:58:50.927Z,82.10
2023-02-26T21:01:18.876Z,82.50
2023-02-26T21:03:48.162Z,82.70
2023-02-26T21:06:16.049Z,82.80
2023-02-26T21:08:45.165Z,83.10
2023-02-26T21:11:13.424Z,83.30
2023-02-26T21:13:41.287Z,83.50
2023-02-26T21:16:09.415Z,83.80
2023-02-26T21:18:37.726Z,84.10
2023-02-26T21:21:07.379Z,84.40
2023-02-26T21:23:36.078Z,84.90
2023-02-26T21:26:04.775Z,85.10
2023-02-26T21:28:32.727Z,85.50
2023-02-26T21:31:00.802Z,85.90
2023-02-26T21:33:28.782Z,87.10
2023-02-26T21:35:57.216Z,86.70
2023-02-26T21:38:26.563Z,87.20
2023-02-26T21:40:54.900Z,88.70
2023-02-26T21:43:22.886Z,88.80
2023-02-26T21:45:51.089Z,88.80
2023-02-26T21:48:19.185Z,88.70
2023-02-26T21:50:49.332Z,88.70
2023-02-26T21:53:17.569Z,88.70
2023-02-26T21:55:47.114Z,88.70
2023-02-26T21:58:15.228Z,88.90
2023-02-26T22:00:43.293Z,89.00
2023-02-26T22:03:11.674Z,89.20
2023-02-26T22:05:39.630Z,89.50
2023-02-26T22:08:07.615Z,89.80
2023-02-26T22:10:35.553Z,90.10
2023-02-26T22:13:04.803Z,90.20
2023-02-26T22:15:32.705Z,90.40
2023-02-26T22:18:00.531Z,90.60
2023-02-26T22:20:28.452Z,90.80
2023-02-26T22:22:56.605Z,91.00
2023-02-26T22:25:24.513Z,91.20
2023-02-26T22:27:52.417Z,91.40
2023-02-26T22:30:21.726Z,91.60
2023-02-26T22:32:49.835Z,91.70
2023-02-26T22:35:18.159Z,91.90
2023-02-26T22:37:46.175Z,92.20
2023-02-26T22:40:15.220Z,92.40
2023-02-26T22:42:44.612Z,92.60
2023-02-26T22:45:13.537Z,92.80
2023-02-26T22:47:42.832Z,93.00
2023-02-26T22:50:12.091Z,93.20
2023-02-26T22:52:40.248Z,93.30
2023-02-26T22:55:09.228Z,93.50
2023-02-26T22:57:37.377Z,93.70
2023-02-26T23:00:11.298Z,93.80
2023-02-26T23:02:39.303Z,94.00
2023-02-26T23:05:09.597Z,94.50
2023-02-26T23:07:37.536Z,94.30
2023-02-26T23:10:08.414Z,94.50
2023-02-26T23:12:36.419Z,94.70
2023-02-26T23:15:04.514Z,94.90
2023-02-26T23:17:32.423Z,95.00
2023-02-26T23:20:00.275Z,95.50
2023-02-26T23:22:29.684Z,95.40
2023-02-26T23:24:57.524Z,95.60
2023-02-26T23:27:25.382Z,96.10
2023-02-26T23:29:53.305Z,96.00
2023-02-26T23:32:21.220Z,96.20
2023-02-26T23:34:49.160Z,96.40
2023-02-26T23:37:17.079Z,96.50
2023-02-26T23:39:48.530Z,96.70
2023-02-26T23:42:16.941Z,96.90
2023-02-26T23:44:44.891Z,97.10
2023-02-26T23:47:12.766Z,97.30
2023-02-26T23:49:40.702Z,97.60
2023-02-26T23:52:08.639Z,97.80
2023-02-26T23:54:39.628Z,98.00
2023-02-26T23:57:09.240Z,98.20
2023-02-26T23:59:37.330Z,98.40
